Time;durP1;ratioP1;P1;durP2;ratioP2;P2;SDS_P1;SDS_P2;PMS_P1;PMS_P2;Temp;Humidity;BMP_temperature;BMP_pressure;BME280_temperature;BME280_humidity;BME280_pressure;Samples;Min_cycle;Max_cycle;Signal;HPM_P1;HPM_P2
2023/03/27 00:02:21;;;;;;;15.47;14.13;;;2.30;75.00;;;;;;4965657;28;20257;-90
2023/03/27 00:04:47;;;;;;;15.13;13.57;;;2.30;75.10;;;;;;4965748;28;20210;-91
2023/03/27 00:07:13;;;;;;;15.43;14.23;;;2.20;75.00;;;;;;4983666;28;20206;-91
2023/03/27 00:09:38;;;;;;;16.87;15.00;;;2.20;75.20;;;;;;4969862;28;20666;-91
2023/03/27 00:12:05;;;;;;;16.63;15.33;;;2.20;75.10;;;;;;4969916;28;20195;-91
2023/03/27 00:14:30;;;;;;;16.93;15.33;;;2.20;75.10;;;;;;4969304;28;20190;-91
2023/03/27 00:16:58;;;;;;;16.43;14.70;;;2.10;75.20;;;;;;4969618;28;20187;-91
2023/03/27 00:19:24;;;;;;;15.80;14.03;;;2.00;75.10;;;;;;4988773;28;20220;-91
2023/03/27 00:21:50;;;;;;;16.10;14.70;;;2.00;75.20;;;;;;4969240;28;20182;-90
2023/03/27 00:24:16;;;;;;;16.03;14.80;;;2.00;75.10;;;;;;4963410;28;20177;-90
2023/03/27 00:26:42;;;;;;;15.77;14.50;;;2.00;75.10;;;;;;4979288;28;20195;-91
2023/03/27 00:29:07;;;;;;;15.97;14.57;;;2.00;75.10;;;;;;4962981;28;20207;-91
2023/03/27 00:31:34;;;;;;;15.90;14.57;;;1.90;75.10;;;;;;4948778;28;20279;-90
2023/03/27 00:34:00;;;;;;;16.23;14.87;;;1.90;75.10;;;;;;4964802;28;20634;-91
2023/03/27 00:36:26;;;;;;;16.30;14.63;;;1.80;75.20;;;;;;4982339;28;20178;-91
2023/03/27 00:38:52;;;;;;;15.97;14.63;;;1.80;75.10;;;;;;4963965;28;20198;-90
2023/03/27 00:41:19;;;;;;;15.90;14.77;;;1.90;75.00;;;;;;4964778;28;20191;-90
2023/03/27 00:43:47;;;;;;;15.77;14.40;;;1.90;74.90;;;;;;4966665;28;20203;-91
2023/03/27 00:46:39;;;;;;;16.30;14.77;;;1.90;74.60;;;;;;4966305;28;20211;-91
2023/03/27 00:49:09;;;;;;;15.47;14.13;;;1.90;74.40;;;;;;4967976;28;20224;-91
2023/03/27 00:51:37;;;;;;;15.33;14.20;;;2.00;74.20;;;;;;4969000;28;20517;-89
2023/03/27 00:54:04;;;;;;;16.10;14.70;;;1.80;74.20;;;;;;4967601;28;20174;-92
2023/03/27 00:56:32;;;;;;;16.53;15.23;;;1.70;74.30;;;;;;4992851;28;20179;-91
2023/03/27 00:59:02;;;;;;;16.60;15.33;;;1.60;74.60;;;;;;4997655;28;20191;-92
2023/03/27 01:01:29;;;;;;;16.90;15.13;;;1.60;74.70;;;;;;4976989;28;20163;-90
2023/03/27 01:04:00;;;;;;;17.53;15.90;;;1.70;74.80;;;;;;4973941;28;20210;-91
2023/03/27 01:06:27;;;;;;;16.50;15.40;;;1.70;74.80;;;;;;4966944;28;20218;-90
2023/03/27 01:08:53;;;;;;;16.37;14.87;;;1.70;74.80;;;;;;4974262;28;20260;-91
2023/03/27 01:11:45;;;;;;;16.10;14.90;;;1.60;74.80;;;;;;4978583;28;20218;-91
2023/03/27 01:14:34;;;;;;;15.67;14.67;;;1.60;75.00;;;;;;4973119;28;20182;-92
2023/03/27 01:17:24;;;;;;;16.77;15.57;;;1.40;75.10;;;;;;4975588;28;20191;-91
2023/03/27 01:20:09;;;;;;;16.93;15.43;;;1.30;75.10;;;;;;4979113;28;20243;-91
2023/03/27 01:22:53;;;;;;;17.23;15.60;;;1.30;75.50;;;;;;4977609;28;20178;-91
2023/03/27 01:25:53;;;;;;;16.70;15.30;;;1.30;75.70;;;;;;4976307;28;20213;-91
2023/03/27 01:28:36;;;;;;;17.90;16.10;;;1.30;75.70;;;;;;4976030;28;20238;-91
2023/03/27 01:31:42;;;;;;;16.80;15.40;;;1.20;76.30;;;;;;4976319;28;20206;-90
2023/03/27 01:34:20;;;;;;;19.67;14.73;;;1.20;76.50;;;;;;4977823;28;20202;-91
2023/03/27 01:37:06;;;;;;;15.57;14.03;;;1.20;77.20;;;;;;4979199;28;20169;-91
2023/03/27 01:40:07;;;;;;;14.83;13.30;;;1.30;77.90;;;;;;4978444;28;20181;-91
2023/03/27 01:42:43;;;;;;;14.60;12.80;;;1.30;78.30;;;;;;4953485;28;20197;-91
2023/03/27 01:45:40;;;;;;;15.07;13.57;;;1.40;78.80;;;;;;4978113;28;20189;-91
2023/03/27 01:48:11;;;;;;;14.73;13.20;;;1.40;78.90;;;;;;4976604;28;20226;-91
2023/03/27 01:50:53;;;;;;;14.43;11.90;;;1.50;79.50;;;;;;4979314;28;20185;-91
2023/03/27 01:53:29;;;;;;;14.40;10.90;;;1.60;79.80;;;;;;4978175;28;20193;-91
2023/03/27 01:56:02;;;;;;;13.43;10.03;;;1.50;80.10;;;;;;4978155;28;20185;-91
2023/03/27 01:58:38;;;;;;;11.43;8.80;;;1.50;80.60;;;;;;4978483;28;20198;-91
2023/03/27 02:01:05;;;;;;;13.00;9.70;;;1.40;81.30;;;;;;4975132;28;20204;-91
2023/03/27 02:03:38;;;;;;;15.93;9.70;;;1.40;81.60;;;;;;4976808;28;20210;-91
2023/03/27 02:06:15;;;;;;;21.43;9.23;;;1.50;81.60;;;;;;4981408;28;20203;-91
2023/03/27 02:08:47;;;;;;;8.50;7.30;;;1.50;81.60;;;;;;4981808;28;20206;-92
2023/03/27 02:11:14;;;;;;;10.80;7.77;;;1.50;82.00;;;;;;4982333;28;20238;-91
2023/03/27 02:13:46;;;;;;;15.83;8.00;;;1.50;82.10;;;;;;4980976;28;20183;-92
2023/03/27 02:16:17;;;;;;;15.27;7.53;;;1.50;82.50;;;;;;4981989;28;20170;-91
2023/03/27 02:18:50;;;;;;;22.83;7.20;;;1.50;82.70;;;;;;4979651;28;20198;-91
2023/03/27 02:21:16;;;;;;;8.10;6.17;;;1.40;83.20;;;;;;4979288;28;20178;-92
2023/03/27 02:23:42;;;;;;;18.47;6.67;;;1.50;83.90;;;;;;4978316;28;20179;-91
2023/03/27 02:26:11;;;;;;;18.27;7.87;;;1.50;84.20;;;;;;4979565;28;20213;-92
2023/03/27 02:28:56;;;;;;;9.20;5.77;;;1.60;84.60;;;;;;4981046;28;20182;-91
2023/03/27 02:31:24;;;;;;;14.27;5.90;;;1.60;84.70;;;;;;4982253;28;20155;-91
2023/03/27 02:33:53;;;;;;;11.37;6.00;;;1.70;84.80;;;;;;4981476;28;20231;-91
2023/03/27 02:36:48;;;;;;;12.70;6.30;;;1.60;84.70;;;;;;4983098;28;20179;-91
2023/03/27 02:39:38;;;;;;;14.37;6.10;;;1.50;84.50;;;;;;4981615;28;20198;-91
2023/03/27 02:42:35;;;;;;;13.33;5.67;;;1.50;84.80;;;;;;4981095;28;20199;-91
2023/03/27 02:45:23;;;;;;;10.97;6.30;;;1.60;85.00;;;;;;4980079;28;20261;-91
2023/03/27 02:48:23;;;;;;;12.90;6.47;;;1.60;85.20;;;;;;4982106;28;20230;-92
2023/03/27 02:51:03;;;;;;;7.90;5.43;;;1.60;85.40;;;;;;4963984;28;20254;-92
2023/03/27 02:53:33;;;;;;;16.60;6.23;;;1.50;85.80;;;;;;4980374;28;20196;-92
2023/03/27 02:56:00;;;;;;;13.00;6.20;;;1.50;85.90;;;;;;4980111;28;20197;-92
2023/03/27 02:59:02;;;;;;;17.07;6.93;;;1.50;86.00;;;;;;4982183;28;20203;-92
2023/03/27 03:01:31;;;;;;;12.10;5.80;;;1.60;86.00;;;;;;4969273;28;20195;-92
2023/03/27 03:04:06;;;;;;;11.17;5.63;;;1.50;85.90;;;;;;4982619;28;20209;-92
2023/03/27 03:06:31;;;;;;;15.57;6.27;;;1.60;86.10;;;;;;4981143;28;20209;-91
2023/03/27 03:09:00;;;;;;;15.37;6.47;;;1.60;86.10;;;;;;4979548;28;20203;-92
2023/03/27 03:11:27;;;;;;;15.07;6.23;;;1.60;86.10;;;;;;4979565;28;20264;-92
2023/03/27 03:13:53;;;;;;;12.20;6.97;;;1.50;86.00;;;;;;4977884;28;20178;-92
2023/03/27 03:16:19;;;;;;;9.27;6.40;;;1.40;85.90;;;;;;4978534;28;20279;-92
2023/03/27 03:18:45;;;;;;;16.83;6.87;;;1.50;86.00;;;;;;4976236;28;20209;-92
2023/03/27 03:21:10;;;;;;;14.77;6.27;;;1.50;86.10;;;;;;4988346;28;20177;-91
2023/03/27 03:23:37;;;;;;;8.87;6.00;;;1.50;86.40;;;;;;4972304;28;20719;-92
2023/03/27 03:26:03;;;;;;;12.13;6.57;;;1.50;86.40;;;;;;4969690;28;20548;-92
2023/03/27 03:28:29;;;;;;;9.73;6.30;;;1.50;86.60;;;;;;4968024;28;20382;-91
2023/03/27 03:30:57;;;;;;;13.77;6.20;;;1.40;86.70;;;;;;4966101;28;20193;-91
2023/03/27 03:33:24;;;;;;;6.27;5.27;;;1.50;87.20;;;;;;4971101;28;20676;-92
2023/03/27 03:35:50;;;;;;;9.17;6.00;;;1.50;87.20;;;;;;4969004;28;20181;-92
2023/03/27 03:38:25;;;;;;;12.37;5.10;;;1.50;87.20;;;;;;4971542;28;20195;-92
2023/03/27 03:40:55;;;;;;;13.67;6.20;;;1.40;87.30;;;;;;4974615;28;20221;-92
2023/03/27 03:43:22;;;;;;;10.57;6.10;;;1.40;87.60;;;;;;4977497;28;20175;-92
2023/03/27 03:45:48;;;;;;;10.83;5.40;;;1.30;87.60;;;;;;4976508;28;20178;-92
2023/03/27 03:48:15;;;;;;;9.90;5.27;;;1.30;87.80;;;;;;4977750;28;20194;-91
2023/03/27 03:50:42;;;;;;;7.93;5.17;;;1.30;88.00;;;;;;4978371;28;20174;-92
2023/03/27 03:53:07;;;;;;;7.47;4.50;;;1.30;88.00;;;;;;4977284;28;20179;-92
2023/03/27 03:55:33;;;;;;;7.20;5.57;;;1.30;88.20;;;;;;4977502;28;20192;-91
2023/03/27 03:57:58;;;;;;;5.03;4.53;;;1.30;88.20;;;;;;4976608;28;20275;-92
2023/03/27 04:00:24;;;;;;;8.67;5.43;;;1.40;88.10;;;;;;4976620;28;20200;-91
2023/03/27 04:02:54;;;;;;;5.10;4.60;;;1.30;88.00;;;;;;4977088;28;20200;-91
2023/03/27 04:05:21;;;;;;;5.93;4.60;;;1.30;88.10;;;;;;4975858;28;20225;-91
2023/03/27 04:07:48;;;;;;;10.37;6.07;;;1.30;88.30;;;;;;4977856;28;20241;-91
2023/03/27 04:10:14;;;;;;;8.23;4.97;;;1.30;88.30;;;;;;4977876;28;20174;-91
2023/03/27 04:12:40;;;;;;;9.53;5.20;;;1.20;88.30;;;;;;4976641;28;20240;-91
2023/03/27 04:15:06;;;;;;;11.63;5.20;;;1.20;88.30;;;;;;4975461;28;20185;-92
2023/03/27 04:17:32;;;;;;;8.50;5.27;;;1.10;88.30;;;;;;4975470;28;20241;-91
2023/03/27 04:19:58;;;;;;;5.83;4.83;;;1.10;88.40;;;;;;4975693;28;20178;-91
2023/03/27 04:22:25;;;;;;;7.80;4.60;;;1.20;88.80;;;;;;4975118;28;20181;-91
2023/03/27 04:24:52;;;;;;;8.33;4.70;;;1.20;88.90;;;;;;4974268;28;20190;-91
2023/03/27 04:27:20;;;;;;;9.53;6.47;;;1.20;89.30;;;;;;4974787;28;20273;-91
2023/03/27 04:29:46;;;;;;;7.00;5.50;;;1.30;89.40;;;;;;4975333;28;20182;-91
2023/03/27 04:32:17;;;;;;;12.13;5.30;;;1.30;89.40;;;;;;4973263;28;20177;-91
2023/03/27 04:34:44;;;;;;;9.73;5.70;;;1.40;89.30;;;;;;4975619;28;20233;-92
2023/03/27 04:37:10;;;;;;;11.83;5.37;;;1.40;89.10;;;;;;4973975;28;20184;-91
2023/03/27 04:39:41;;;;;;;11.63;5.80;;;1.40;88.90;;;;;;4974769;28;20179;-91
2023/03/27 04:42:07;;;;;;;9.90;5.87;;;1.50;88.80;;;;;;4971749;28;20171;-91
2023/03/27 04:44:33;;;;;;;10.77;6.93;;;1.50;88.90;;;;;;4973286;28;20179;-92
2023/03/27 04:47:00;;;;;;;12.43;5.03;;;1.40;89.20;;;;;;4973027;28;20212;-91
2023/03/27 04:49:27;;;;;;;10.87;5.60;;;1.40;89.50;;;;;;4967983;28;20197;-91
2023/03/27 04:51:52;;;;;;;11.23;5.57;;;1.30;89.50;;;;;;4968718;28;20174;-91
2023/03/27 04:54:18;;;;;;;15.80;5.47;;;1.30;89.50;;;;;;4967988;28;20180;-92
2023/03/27 04:56:44;;;;;;;14.93;5.50;;;1.40;89.40;;;;;;4971701;28;20187;-92
2023/03/27 04:59:10;;;;;;;7.93;5.47;;;1.40;89.30;;;;;;4973394;28;20792;-91
2023/03/27 05:01:35;;;;;;;9.97;5.83;;;1.40;89.30;;;;;;4974815;28;20185;-92
2023/03/27 05:04:01;;;;;;;10.53;5.83;;;1.30;89.20;;;;;;4975802;28;20182;-91
2023/03/27 05:06:27;;;;;;;9.60;5.97;;;1.30;89.10;;;;;;4976835;28;20205;-91
2023/03/27 05:08:53;;;;;;;11.93;6.00;;;1.30;89.00;;;;;;4979004;28;20198;-91
2023/03/27 05:11:19;;;;;;;12.83;5.97;;;1.30;89.10;;;;;;4978437;28;20169;-92
2023/03/27 05:13:45;;;;;;;10.37;5.70;;;1.20;89.20;;;;;;4965265;28;20196;-90
2023/03/27 05:16:10;;;;;;;9.93;6.40;;;1.30;89.30;;;;;;4978159;28;20172;-88
2023/03/27 05:18:37;;;;;;;13.13;6.13;;;1.20;89.30;;;;;;4976537;28;20209;-92
2023/03/27 05:21:03;;;;;;;11.97;6.20;;;1.20;89.30;;;;;;4976448;28;20722;-92
2023/03/27 05:23:29;;;;;;;10.67;6.93;;;1.30;89.40;;;;;;4974267;28;20179;-92
2023/03/27 05:25:55;;;;;;;11.53;6.47;;;1.20;89.40;;;;;;4972988;28;20186;-91
2023/03/27 05:28:22;;;;;;;9.80;6.60;;;1.10;89.40;;;;;;4972596;28;20208;-91
2023/03/27 05:30:48;;;;;;;9.03;5.73;;;0.90;89.60;;;;;;4972145;28;20181;-91
2023/03/27 05:33:15;;;;;;;11.80;6.80;;;0.90;89.90;;;;;;4972782;28;20189;-91
2023/03/27 05:35:41;;;;;;;15.40;6.60;;;1.00;90.10;;;;;;4970549;28;20201;-91
2023/03/27 05:38:07;;;;;;;9.43;6.20;;;1.10;90.20;;;;;;4974085;28;20206;-91
2023/03/27 05:40:33;;;;;;;16.77;6.23;;;1.20;90.20;;;;;;4993677;28;20258;-91
2023/03/27 05:43:00;;;;;;;9.17;6.40;;;1.20;90.10;;;;;;4974894;28;20220;-91
2023/03/27 05:45:26;;;;;;;11.70;6.63;;;1.30;89.90;;;;;;4974961;28;20209;-90
2023/03/27 05:47:54;;;;;;;11.53;6.53;;;1.30;89.70;;;;;;4975321;28;20765;-91
2023/03/27 05:50:22;;;;;;;17.77;6.33;;;1.40;89.40;;;;;;4980903;28;20181;-92
2023/03/27 05:52:54;;;;;;;10.50;6.30;;;1.40;89.00;;;;;;4976342;28;20175;-91
2023/03/27 05:55:20;;;;;;;18.53;6.47;;;1.50;88.70;;;;;;4976493;28;20186;-92
2023/03/27 05:57:45;;;;;;;8.60;5.93;;;1.60;88.20;;;;;;4978658;28;20258;-92
2023/03/27 06:00:15;;;;;;;7.10;6.40;;;1.60;87.60;;;;;;4978847;28;20218;-93
2023/03/27 06:02:43;;;;;;;7.53;5.63;;;1.70;87.20;;;;;;4972203;28;20541;-93
2023/03/27 06:05:12;;;;;;;5.77;5.37;;;1.70;86.90;;;;;;4972634;28;20210;-92
2023/03/27 06:07:38;;;;;;;6.70;6.07;;;1.70;86.90;;;;;;4972405;28;20220;-93
2023/03/27 06:10:07;;;;;;;7.60;5.83;;;1.80;86.90;;;;;;4973029;28;20186;-93
2023/03/27 06:12:35;;;;;;;11.23;6.07;;;1.80;86.90;;;;;;4974269;28;20177;-93
2023/03/27 06:15:03;;;;;;;9.90;5.67;;;1.90;87.00;;;;;;4975209;28;20183;-93
2023/03/27 06:17:28;;;;;;;8.37;6.80;;;2.00;86.80;;;;;;4972716;28;20226;-92
2023/03/27 06:19:55;;;;;;;9.90;5.93;;;2.10;86.50;;;;;;4973065;28;20209;-93
2023/03/27 06:22:20;;;;;;;6.77;6.00;;;2.30;86.20;;;;;;4970288;28;20182;-91
2023/03/27 06:24:46;;;;;;;7.83;6.13;;;2.50;85.80;;;;;;4965817;28;20188;-92
2023/03/27 06:27:12;;;;;;;12.07;7.30;;;2.70;85.50;;;;;;4963313;28;20300;-92
2023/03/27 06:29:37;;;;;;;8.33;6.90;;;2.80;84.80;;;;;;4962379;28;20182;-92
2023/03/27 06:32:03;;;;;;;8.50;6.93;;;2.80;84.20;;;;;;4962468;28;20229;-92
2023/03/27 06:34:29;;;;;;;7.53;6.80;;;2.90;83.30;;;;;;4962082;28;20217;-92
2023/03/27 06:36:54;;;;;;;9.83;8.40;;;3.00;81.90;;;;;;4961961;28;20182;-92
2023/03/27 06:39:20;;;;;;;9.13;8.33;;;3.00;81.70;;;;;;4962335;28;20210;-92
2023/03/27 06:41:46;;;;;;;8.93;8.13;;;3.00;81.60;;;;;;4962476;28;20181;-92
2023/03/27 06:44:12;;;;;;;9.00;8.10;;;2.90;81.50;;;;;;4965387;28;20696;-92
2023/03/27 06:46:37;;;;;;;10.23;8.90;;;2.90;81.60;;;;;;4965028;28;20206;-92
2023/03/27 06:49:03;;;;;;;14.00;7.50;;;3.00;82.00;;;;;;4966550;28;20191;-92
2023/03/27 06:51:28;;;;;;;16.73;8.10;;;3.10;82.20;;;;;;4969894;28;20180;-92
2023/03/27 06:53:54;;;;;;;9.17;7.83;;;3.10;82.50;;;;;;4972892;28;20178;-92
2023/03/27 06:56:20;;;;;;;10.90;8.80;;;3.20;83.00;;;;;;4965734;28;20191;-92
2023/03/27 06:58:45;;;;;;;13.73;8.90;;;3.20;83.10;;;;;;4982934;28;20205;-92
2023/03/27 07:01:11;;;;;;;11.33;8.37;;;3.30;83.30;;;;;;4964666;28;20229;-92
2023/03/27 07:03:37;;;;;;;21.27;8.90;;;3.40;83.30;;;;;;4960675;28;20243;-89
2023/03/27 07:06:03;;;;;;;12.33;8.33;;;3.50;82.90;;;;;;4959237;28;20196;-89
2023/03/27 07:08:29;;;;;;;8.83;7.93;;;3.60;82.50;;;;;;4959608;28;20222;-88
2023/03/27 07:10:55;;;;;;;14.50;9.67;;;3.50;81.70;;;;;;4961506;28;20187;-91
2023/03/27 07:13:21;;;;;;;11.23;9.47;;;3.50;81.30;;;;;;4967537;28;20179;-91
2023/03/27 07:15:46;;;;;;;16.07;8.93;;;3.50;81.40;;;;;;4987798;28;20190;-91
2023/03/27 07:18:14;;;;;;;10.20;8.33;;;3.50;81.20;;;;;;4969805;28;20215;-91
2023/03/27 07:20:39;;;;;;;14.30;10.23;;;3.50;81.10;;;;;;4966675;28;20176;-91
2023/03/27 07:23:05;;;;;;;11.10;10.03;;;3.50;81.10;;;;;;4964931;28;20245;-90
2023/03/27 07:25:36;;;;;;;12.63;9.53;;;3.50;80.70;;;;;;4965192;28;20247;-91
2023/03/27 07:28:09;;;;;;;14.30;10.27;;;3.50;80.80;;;;;;4967412;28;20225;-90
2023/03/27 07:30:36;;;;;;;13.40;9.67;;;3.60;81.00;;;;;;4967902;28;20176;-89
2023/03/27 07:33:06;;;;;;;10.53;9.50;;;3.70;81.40;;;;;;4977083;28;20194;-89
2023/03/27 07:35:32;;;;;;;10.23;9.10;;;3.70;81.40;;;;;;4958702;28;20560;-90
2023/03/27 07:37:57;;;;;;;11.33;9.50;;;3.80;81.20;;;;;;4975902;28;20233;-89
2023/03/27 07:40:25;;;;;;;10.07;9.47;;;4.00;80.50;;;;;;4976167;28;20190;-89
2023/03/27 07:42:52;;;;;;;9.70;8.80;;;3.80;79.80;;;;;;4960150;28;20192;-90
2023/03/27 07:45:19;;;;;;;13.40;9.27;;;3.80;80.50;;;;;;4975953;28;20175;-90
2023/03/27 07:47:46;;;;;;;9.53;8.47;;;4.00;81.20;;;;;;4958340;28;20241;-91
2023/03/27 07:50:17;;;;;;;9.13;8.33;;;3.90;81.20;;;;;;4976057;28;20223;-91
2023/03/27 07:52:44;;;;;;;9.03;8.20;;;3.80;81.60;;;;;;4975988;28;20690;-91
2023/03/27 07:55:16;;;;;;;8.73;7.87;;;3.90;82.20;;;;;;4976670;28;20242;-90
2023/03/27 07:57:47;;;;;;;9.47;8.63;;;3.90;81.60;;;;;;4978272;28;20201;-92
2023/03/27 08:00:15;;;;;;;10.90;8.97;;;3.80;81.00;;;;;;4960801;28;20185;-92
2023/03/27 08:02:41;;;;;;;10.27;9.30;;;3.70;81.20;;;;;;4979159;28;20222;-92
2023/03/27 08:05:10;;;;;;;10.23;9.33;;;3.70;81.20;;;;;;4961674;28;20186;-92
2023/03/27 08:07:36;;;;;;;9.03;8.33;;;3.60;81.20;;;;;;4960487;28;20222;-91
2023/03/27 08:10:03;;;;;;;11.10;8.37;;;3.70;81.20;;;;;;4962712;28;20185;-91
2023/03/27 08:12:31;;;;;;;11.07;9.83;;;3.80;81.20;;;;;;4960481;28;20187;-90
2023/03/27 08:14:56;;;;;;;10.13;9.33;;;4.00;80.00;;;;;;4960196;28;20206;-91
2023/03/27 08:17:27;;;;;;;10.43;9.53;;;4.20;79.50;;;;;;4962403;28;20192;-91
2023/03/27 08:19:53;;;;;;;14.63;9.27;;;4.40;79.10;;;;;;4961630;28;20640;-91
2023/03/27 08:22:20;;;;;;;10.80;9.80;;;4.50;78.80;;;;;;4963966;28;20244;-92
2023/03/27 08:24:46;;;;;;;9.80;8.80;;;4.70;78.60;;;;;;4958672;28;20549;-90
2023/03/27 08:27:12;;;;;;;9.80;9.00;;;4.70;78.60;;;;;;4975475;28;20204;-91
2023/03/27 08:29:37;;;;;;;10.20;9.17;;;4.50;78.40;;;;;;4958360;28;20621;-90
2023/03/27 08:32:04;;;;;;;9.90;9.20;;;4.20;79.50;;;;;;4976046;28;20174;-90
2023/03/27 08:34:29;;;;;;;8.63;7.77;;;3.80;80.70;;;;;;4958840;28;20187;-90
2023/03/27 08:36:55;;;;;;;8.77;8.00;;;3.30;82.80;;;;;;4958914;28;20190;-91
2023/03/27 08:39:21;;;;;;;8.67;7.97;;;3.30;83.50;;;;;;4976148;28;20203;-90
2023/03/27 08:41:53;;;;;;;8.00;7.50;;;3.40;84.10;;;;;;4975893;28;20182;-90
2023/03/27 08:44:22;;;;;;;7.87;7.37;;;3.30;84.10;;;;;;4974896;28;20177;-90
2023/03/27 08:46:56;;;;;;;7.50;7.10;;;3.30;84.40;;;;;;4976097;28;20201;-89
2023/03/27 08:49:25;;;;;;;7.63;7.23;;;3.30;84.20;;;;;;4975591;28;20257;-90
2023/03/27 08:52:22;;;;;;;7.47;6.10;;;3.50;84.90;;;;;;4975576;28;20176;-89
2023/03/27 08:55:05;;;;;;;7.20;6.57;;;3.80;85.60;;;;;;4971407;28;20194;-90
2023/03/27 08:57:32;;;;;;;6.77;6.20;;;4.00;84.70;;;;;;4975460;28;20222;-90
2023/03/27 08:59:59;;;;;;;7.83;7.27;;;4.00;84.00;;;;;;4974991;28;20258;-90
2023/03/27 09:02:28;;;;;;;7.70;7.20;;;3.70;82.80;;;;;;4975564;28;20179;-91
2023/03/27 09:05:08;;;;;;;7.93;7.43;;;3.60;82.80;;;;;;4975140;28;20242;-88
2023/03/27 09:07:44;;;;;;;8.23;7.47;;;3.80;82.90;;;;;;4957668;28;20220;-89
2023/03/27 09:10:33;;;;;;;8.23;7.60;;;3.80;82.70;;;;;;4975411;28;20176;-89
2023/03/27 09:13:43;;;;;;;8.87;7.97;;;4.00;83.20;;;;;;4974757;28;20183;-89
2023/03/27 09:16:15;;;;;;;8.27;7.67;;;3.80;80.90;;;;;;4957866;28;20174;-90
2023/03/27 09:19:03;;;;;;;8.90;8.20;;;3.90;81.50;;;;;;4976428;28;20196;-89
2023/03/27 09:21:41;;;;;;;9.73;9.00;;;4.00;81.70;;;;;;4957590;28;20263;-87
2023/03/27 09:24:27;;;;;;;11.17;9.03;;;4.10;80.10;;;;;;4957207;28;20177;-88
2023/03/27 09:26:53;;;;;;;10.80;9.03;;;4.30;80.60;;;;;;4957130;28;20204;-88
2023/03/27 09:29:23;;;;;;;10.53;9.60;;;4.60;80.50;;;;;;4956857;28;20197;-89
2023/03/27 09:31:51;;;;;;;13.23;11.70;;;4.70;78.40;;;;;;4957826;28;20173;-89
2023/03/27 09:34:27;;;;;;;15.57;14.37;;;4.70;77.70;;;;;;4975169;28;20178;-89
2023/03/27 09:36:54;;;;;;;12.43;10.37;;;4.90;78.60;;;;;;4976267;28;20582;-88
2023/03/27 09:39:28;;;;;;;12.20;11.00;;;5.20;77.30;;;;;;4979249;28;20273;-91
2023/03/27 09:41:56;;;;;;;11.23;10.33;;;5.30;76.90;;;;;;4965502;28;20173;-90
2023/03/27 09:44:31;;;;;;;11.90;10.67;;;5.30;76.50;;;;;;4960477;28;20189;-90
2023/03/27 09:47:03;;;;;;;11.40;10.50;;;5.40;77.00;;;;;;4979382;28;20672;-90
2023/03/27 09:49:29;;;;;;;13.23;11.13;;;5.80;76.40;;;;;;4974268;28;20283;-88
2023/03/27 09:51:58;;;;;;;16.93;12.50;;;5.90;75.30;;;;;;4974130;28;20606;-89
2023/03/27 09:54:27;;;;;;;13.70;12.30;;;5.90;73.10;;;;;;4974104;28;20551;-88
2023/03/27 09:57:09;;;;;;;13.30;12.20;;;6.30;73.70;;;;;;4976525;28;20602;-90
2023/03/27 09:59:39;;;;;;;14.33;13.03;;;6.60;72.70;;;;;;4976128;28;20205;-90
2023/03/27 10:02:16;;;;;;;14.33;12.10;;;7.00;70.90;;;;;;4959454;28;20620;-90
2023/03/27 10:05:20;;;;;;;15.17;13.67;;;7.10;69.10;;;;;;4959375;28;20202;-91
2023/03/27 10:07:46;;;;;;;15.77;13.67;;;7.30;70.00;;;;;;4950111;28;20264;-90
2023/03/27 10:10:16;;;;;;;16.83;15.30;;;7.20;68.60;;;;;;4975987;28;20267;-91
2023/03/27 10:12:43;;;;;;;17.57;15.83;;;6.70;66.70;;;;;;4958529;28;20262;-90
2023/03/27 10:15:33;;;;;;;17.00;14.37;;;6.40;67.90;;;;;;4976269;28;20641;-90
2023/03/27 10:18:01;;;;;;;15.53;13.97;;;6.10;69.00;;;;;;4976658;28;20680;-91
2023/03/27 10:20:27;;;;;;;14.23;13.17;;;5.80;69.50;;;;;;4975879;28;20191;-91
2023/03/27 10:22:58;;;;;;;15.53;14.53;;;5.30;71.50;;;;;;4959638;28;20182;-91
2023/03/27 10:25:38;;;;;;;16.17;14.93;;;5.40;71.80;;;;;;4981662;28;20258;-91
2023/03/27 10:28:16;;;;;;;16.07;14.47;;;5.20;73.00;;;;;;4973857;28;20221;-91
2023/03/27 10:30:42;;;;;;;15.90;13.93;;;5.10;73.80;;;;;;4963043;28;20175;-89
2023/03/27 10:33:08;;;;;;;14.97;13.73;;;5.00;74.10;;;;;;4959990;28;20552;-88
2023/03/27 10:35:42;;;;;;;14.57;13.57;;;4.90;74.60;;;;;;4977193;28;20182;-88
2023/03/27 10:38:16;;;;;;;16.10;14.40;;;4.70;74.30;;;;;;4977161;28;20205;-88
2023/03/27 10:40:47;;;;;;;16.13;14.70;;;4.60;74.30;;;;;;4977335;28;20182;-90
2023/03/27 10:43:19;;;;;;;14.63;12.90;;;4.80;75.20;;;;;;4960991;28;20184;-90
2023/03/27 10:45:49;;;;;;;13.07;11.97;;;5.10;75.70;;;;;;4977803;28;20163;-91
2023/03/27 10:48:30;;;;;;;12.77;11.87;;;5.50;76.70;;;;;;4960792;28;20305;-91
2023/03/27 10:51:02;;;;;;;13.37;12.27;;;5.80;75.50;;;;;;4977512;28;20261;-89
2023/03/27 10:53:36;;;;;;;14.07;12.57;;;6.00;74.90;;;;;;4978856;28;20672;-91
2023/03/27 10:56:09;;;;;;;13.27;12.03;;;6.30;74.50;;;;;;4979402;28;20166;-91
2023/03/27 10:58:46;;;;;;;13.30;12.20;;;6.30;74.00;;;;;;4966167;28;20253;-91
2023/03/27 11:01:21;;;;;;;14.97;13.57;;;6.50;73.10;;;;;;4978654;28;20249;-90
2023/03/27 11:04:14;;;;;;;14.87;13.60;;;6.30;71.10;;;;;;4979080;28;20162;-90
2023/03/27 11:06:43;;;;;;;14.30;13.13;;;6.10;70.70;;;;;;4957174;28;20305;-89
2023/03/27 11:09:18;;;;;;;14.00;13.10;;;5.50;72.90;;;;;;4960449;28;20206;-90
2023/03/27 11:11:49;;;;;;;12.97;11.77;;;4.80;74.50;;;;;;4978098;28;20166;-90
2023/03/27 11:14:33;;;;;;;11.17;10.37;;;4.20;77.00;;;;;;4962828;28;20184;-92
2023/03/27 11:17:04;;;;;;;10.73;9.77;;;3.90;79.60;;;;;;4963678;28;20633;-89
2023/03/27 11:19:51;;;;;;;10.77;9.77;;;3.80;81.00;;;;;;4961788;28;20201;-91
2023/03/27 11:22:37;;;;;;;8.93;8.23;;;3.40;82.60;;;;;;4978122;28;20166;-91
2023/03/27 11:25:12;;;;;;;9.07;8.43;;;2.90;84.60;;;;;;4967283;28;20184;-91
2023/03/27 11:27:42;;;;;;;8.40;7.67;;;2.80;85.00;;;;;;4959536;28;20308;-90
2023/03/27 11:30:13;;;;;;;8.40;7.70;;;2.40;86.10;;;;;;4980914;28;20159;-91
2023/03/27 11:33:05;;;;;;;7.83;6.90;;;2.70;86.60;;;;;;4965872;28;20179;-91
2023/03/27 11:35:40;;;;;;;7.70;7.10;;;2.80;86.50;;;;;;4965696;28;20183;-91
2023/03/27 11:38:18;;;;;;;7.30;6.80;;;2.80;86.70;;;;;;4972521;28;20225;-91
2023/03/27 11:40:46;;;;;;;6.70;6.30;;;3.00;87.10;;;;;;4970661;28;20184;-91
2023/03/27 11:43:14;;;;;;;6.70;6.20;;;3.40;87.20;;;;;;4971062;28;20186;-92
2023/03/27 11:46:08;;;;;;;6.53;5.80;;;3.90;87.40;;;;;;4971948;28;20198;-92
2023/03/27 11:48:45;;;;;;;7.10;6.60;;;4.60;86.70;;;;;;4970815;28;20210;-92
2023/03/27 11:51:29;;;;;;;7.47;6.87;;;5.00;85.10;;;;;;4966675;28;20294;-92
2023/03/27 11:54:38;;;;;;;9.17;8.30;;;5.50;83.40;;;;;;4967454;28;20189;-91
2023/03/27 11:57:28;;;;;;;12.27;10.00;;;5.60;81.30;;;;;;4979284;28;20236;-92
2023/03/27 12:00:05;;;;;;;9.20;8.40;;;5.50;79.00;;;;;;4959034;28;20183;-89
2023/03/27 12:03:00;;;;;;;9.10;8.40;;;6.10;80.40;;;;;;4959133;28;20175;-89
2023/03/27 12:05:54;;;;;;;13.97;9.30;;;6.50;80.60;;;;;;4975954;28;20533;-89
2023/03/27 12:08:32;;;;;;;11.07;9.93;;;6.80;78.20;;;;;;4958293;28;20662;-89
2023/03/27 12:11:00;;;;;;;14.37;10.53;;;7.10;77.30;;;;;;4958502;28;20257;-90
2023/03/27 12:13:52;;;;;;;12.03;10.67;;;7.30;75.80;;;;;;4958525;28;20179;-89
2023/03/27 12:16:45;;;;;;;12.87;12.07;;;7.50;75.20;;;;;;4975426;28;20163;-89
2023/03/27 12:19:32;;;;;;;13.77;12.80;;;7.00;71.60;;;;;;4958007;28;20194;-89
2023/03/27 12:22:03;;;;;;;15.67;13.80;;;7.30;71.10;;;;;;4958065;28;20174;-89
2023/03/27 12:24:52;;;;;;;14.97;13.60;;;7.80;68.30;;;;;;4975086;28;20178;-90
2023/03/27 12:27:23;;;;;;;15.30;13.97;;;7.90;66.00;;;;;;4958483;28;20250;-90
2023/03/27 12:30:17;;;;;;;15.70;14.30;;;8.30;67.60;;;;;;4975378;28;20159;-89
2023/03/27 12:33:09;;;;;;;15.97;14.43;;;8.10;65.60;;;;;;4958000;28;20633;-89
2023/03/27 12:35:40;;;;;;;15.73;14.50;;;8.40;64.80;;;;;;4957824;28;20171;-90
2023/03/27 12:38:26;;;;;;;19.23;16.80;;;8.50;63.50;;;;;;4974910;28;20186;-89
2023/03/27 12:40:51;;;;;;;18.17;16.60;;;8.20;63.30;;;;;;4958493;28;20170;-90
2023/03/27 12:43:19;;;;;;;16.93;14.40;;;7.70;66.10;;;;;;4957546;28;20771;-90
2023/03/27 12:46:13;;;;;;;16.50;15.00;;;7.70;65.10;;;;;;4957544;28;20182;-91
2023/03/27 12:49:04;;;;;;;18.13;15.53;;;7.80;63.60;;;;;;4957097;28;20269;-90
2023/03/27 12:51:41;;;;;;;17.10;15.60;;;7.90;63.10;;;;;;4958071;28;20195;-90
2023/03/27 12:54:19;;;;;;;16.63;15.20;;;7.50;65.80;;;;;;4957697;28;20177;-90
2023/03/27 12:57:07;;;;;;;16.80;15.30;;;6.80;68.60;;;;;;4957802;28;20273;-89
2023/03/27 12:59:47;;;;;;;14.67;13.37;;;6.40;71.30;;;;;;4974993;28;20540;-90
2023/03/27 13:02:39;;;;;;;15.53;14.33;;;5.70;72.20;;;;;;4975823;28;20163;-90
2023/03/27 13:05:19;;;;;;;16.33;14.37;;;5.20;72.70;;;;;;4962278;28;20206;-92
2023/03/27 13:08:10;;;;;;;14.27;13.00;;;5.50;73.50;;;;;;4973000;28;20221;-91
2023/03/27 13:11:00;;;;;;;13.00;11.70;;;6.10;74.80;;;;;;4962855;28;20167;-91
2023/03/27 13:13:54;;;;;;;12.47;11.27;;;6.70;74.00;;;;;;4960944;28;20187;-91